Attila, Illinois
Current Conditions -  °F | °C
As of 8:57 AM on Wednesday 22 Oct 2014 (Local Time) from KMWA Reporting Station
Clear Clear  
Wind Chill: 44°   Ceiling: Unl
Heat Index: 46°   Visibility: 15mi
Dew Point: 45°   Wind: 6mph
Humidity: 93%   Direction: 90°E
Pressure: 30.32"   Gusts: NA
Location:  37.7887°N, 88.8655°W
Report Text: KMWA 221357Z 09005KT 15SM SKC 08/07 A3032
Loading
Personal Weather Stations






























Interactive Weather Map New forecast layout! Learn more

10-Day Weather Forecast

Advertisements
Track Severe Weather on mobile